MUHAKRSW

Guest
Details From MUHA - Havana Jose Marti Intl
To KRSW - Southwest Florida Intl
Flight Number -
Tags generated
Created
Modified
Stats Distance 219 nm / 405 km
Max Altitude 25,100 ft / 7,650 m
Waypoints 5
Social Downloads 0
Likes 0
Share VATSIM

Download

Looking for another format? Having issues loading an existing format? Contact us
Advertisement - Login to hide

Notes

Basic altitude profile: - Ascent Rate: 2500ft/min - Ascent Speed: 250kts - Cruise Altitude: 35000ft - Cruise Speed: 420kts - Descent Rate: 1500ft/min - Descent Speed: 250kts Options: - Use NATs: yes - Use PACOTS: yes - Use low airways: yes - Use high airways: yes

Route

MUHA EYW J41 MARCI V225 HICUP KRSW

ID Type Via Altitude Latitude Longitude Leg Dist Tot Dist Heading (true) Name
O MUHA APT - 0 ft / 0 m 22.98915˚ -82.40909˚ - 0 nm - Havana Jose Marti Intl
EYW DME - 25,100 ft / 7,650 m 24.58588˚ -81.80048˚ 101 nm 101 nm 19° / 19° KEY WEST VORTAC
MARCI FIX J41 (AWY-HI) 17,000 ft / 5,182 m 25.89107˚ -81.78399˚ 78 nm 179 nm 1° / 1° -
HICUP FIX V225 (AWY-LO) 2,000 ft / 610 m 26.41360˚ -81.77729˚ 31 nm 211 nm 1° / 1° -
O KRSW APT - 0 ft / 0 m 26.53616˚ -81.75515˚ 7 nm 218 nm 9° / 9° Southwest Florida Intl

Altitude Profile

Advertisement - Login to hide

Weather


0- 5 10 15 20 25 30 35+ Temperature / ° C

Clouds and Precipitation
Forecast for 2017-12-15 18:00 UTC. Updated an hour ago

Ground ~20,000 ft ~40,000 ft Winds

MUHA

Details ICAO MUHA (HAV)
Name Havana Jose Marti Intl
Region Cuba
Timezone America/Havana (UTC-5.0)
Stats Elevation 209 ft / 64 m (AMSL)
Location 22.989154° -82.409086°
Runways 1
Magnetic Variation 4.908° W

METAR

MUHA 151555Z 09006KT 050V130 9999 FEW025 25/16 Q1020

Decode

TAF

Not found

Departure Runways

ID Width Length Bearing (true) Bearing (mag) Surface Threshold Offset Overrun Length
06 148 ft / 45 m 13,133 ft / 4,003 m 54.21° 59.12° Asphalt 0 ft / 0 m 476 ft / 145 m
24 148 ft / 45 m 13,133 ft / 4,003 m 234.23° 239.14° Asphalt 0 ft / 0 m 197 ft / 60 m

KRSW

Details ICAO KRSW (RSW)
Name Southwest Florida Intl
Region United States
Timezone America/New_York (UTC-5.0)
Stats Elevation 30 ft / 9 m (AMSL)
Location 26.536162° -81.755152°
Runways 1
Magnetic Variation 5.840° W

METAR

KRSW 151553Z 16004KT 10SM BKN045 22/12 A3013 RMK AO2 SLP199 T02220122

Decode

TAF

KRSW 151133Z 1512/1612 17006KT P6SM SCT025 BKN060 FM151500 24008KT P6SM SCT040 SCT250 FM152200 30005KT P6SM FEW025 SCT250 FM160600 00000KT 6SM BR SCT250

Decode

Destination Runways

ID Width Length Bearing (true) Bearing (mag) Surface Threshold Offset Overrun Length
06 150 ft / 46 m 12,004 ft / 3,659 m 53.96° 59.80° Asphalt 0 ft / 0 m 0 ft / 0 m
24 150 ft / 46 m 12,004 ft / 3,659 m 233.97° 239.81° Asphalt 0 ft / 0 m 0 ft / 0 m

Approach Navaids

Runway Type Ident Frequency Range Bearing (true) Bearing (mag) Slope Elevation
06 Localiser IRSW 111.50 MHz 18 nm / 33 km 53.97° 59.81° - 28 ft / 9 m (AMSL)
06 Glidescope IRSW 111.50 MHz 10 nm / 19 km 53.96° 59.80° 3.00° 27 ft / 8 m (AMSL)